Time;durP1;ratioP1;P1;durP2;ratioP2;P2;SDS_P1;SDS_P2;PMS_P1;PMS_P2;Temp;Humidity;BMP_temperature;BMP_pressure;BME280_temperature;BME280_humidity;BME280_pressure;Samples;Min_cycle;Max_cycle;Signal;HPM_P1;HPM_P2
2024/02/21 05:00:18;;;;;;;22.27;9.82;;;9.20;99.90;;;;;;5891057;23;20189;-69
2024/02/21 05:02:45;;;;;;;12.23;7.88;;;9.20;99.90;;;;;;4891355;29;20567;-71
2024/02/21 05:05:12;;;;;;;14.00;8.05;;;9.20;99.90;;;;;;4895079;29;20211;-70
2024/02/21 05:07:38;;;;;;;16.50;9.35;;;9.20;99.90;;;;;;4895500;29;20211;-69
2024/02/21 05:10:08;;;;;;;12.25;8.48;;;9.20;99.90;;;;;;4895451;29;20582;-69
2024/02/21 05:12:34;;;;;;;15.18;8.20;;;9.20;99.90;;;;;;4875234;29;20218;-69
2024/02/21 05:15:01;;;;;;;21.00;9.45;;;9.10;99.90;;;;;;4875398;29;20555;-69
2024/02/21 05:17:29;;;;;;;13.43;8.10;;;9.20;99.90;;;;;;4874819;29;20213;-69
2024/02/21 05:19:56;;;;;;;17.48;8.20;;;9.10;99.90;;;;;;4876039;29;20235;-69
2024/02/21 05:22:22;;;;;;;19.23;8.65;;;9.10;99.90;;;;;;4876514;29;20236;-70
2024/02/21 05:24:49;;;;;;;13.85;9.00;;;9.10;99.90;;;;;;4876037;29;20220;-70
2024/02/21 05:27:16;;;;;;;17.58;8.50;;;8.90;99.90;;;;;;4873366;29;20226;-69
2024/02/21 05:29:42;;;;;;;15.45;6.32;;;8.80;99.90;;;;;;4876285;29;20215;-69
2024/02/21 05:32:09;;;;;;;17.77;7.70;;;8.70;99.90;;;;;;4876407;29;20239;-70
2024/02/21 05:34:37;;;;;;;15.57;8.90;;;8.70;99.90;;;;;;4876364;29;20211;-69
2024/02/21 05:37:04;;;;;;;16.38;7.63;;;8.60;99.90;;;;;;4876703;29;20212;-70
2024/02/21 05:39:31;;;;;;;10.73;7.10;;;8.60;99.90;;;;;;4875349;29;20231;-70
2024/02/21 05:41:58;;;;;;;10.82;6.80;;;8.60;99.90;;;;;;4875392;29;20496;-69
2024/02/21 05:44:26;;;;;;;12.00;6.75;;;8.60;99.90;;;;;;4876602;29;20208;-69
2024/02/21 05:46:52;;;;;;;9.65;6.88;;;8.50;99.90;;;;;;4876667;29;20208;-70
2024/02/21 05:49:19;;;;;;;14.32;7.35;;;8.50;99.90;;;;;;4876273;29;20212;-69
2024/02/21 05:51:47;;;;;;;12.63;7.88;;;8.50;99.90;;;;;;4874430;29;20246;-69
2024/02/21 05:54:14;;;;;;;13.68;8.05;;;8.50;99.90;;;;;;4874141;29;20219;-70
2024/02/21 05:56:44;;;;;;;9.50;6.53;;;8.50;99.90;;;;;;4877837;29;20219;-69
2024/02/21 05:59:11;;;;;;;18.55;6.53;;;8.60;99.90;;;;;;4872626;29;20242;-70
2024/02/21 06:01:37;;;;;;;10.00;7.22;;;8.50;99.90;;;;;;4875952;29;20239;-70
2024/02/21 06:04:05;;;;;;;18.05;12.27;;;8.50;99.90;;;;;;4876921;29;20216;-70
2024/02/21 06:06:31;;;;;;;18.10;8.35;;;8.50;99.90;;;;;;4870906;29;20275;-70
2024/02/21 06:09:00;;;;;;;13.00;7.00;;;8.50;99.90;;;;;;4875602;29;20598;-70
2024/02/21 06:11:26;;;;;;;12.20;6.28;;;8.50;99.90;;;;;;4875394;29;20262;-70
2024/02/21 06:13:53;;;;;;;13.55;7.13;;;8.50;99.90;;;;;;4877070;29;20212;-70
2024/02/21 06:16:20;;;;;;;9.48;5.57;;;8.50;99.90;;;;;;4876906;29;20585;-70
2024/02/21 06:18:46;;;;;;;8.32;5.95;;;8.50;99.90;;;;;;4876213;29;20294;-70
2024/02/21 06:21:13;;;;;;;9.80;6.38;;;8.50;99.90;;;;;;4878657;29;20723;-70
2024/02/21 06:23:40;;;;;;;16.20;6.32;;;8.50;99.90;;;;;;4879255;29;20247;-70
2024/02/21 06:26:08;;;;;;;8.32;5.15;;;8.50;99.90;;;;;;4877489;29;20212;-70
2024/02/21 06:28:35;;;;;;;9.32;6.30;;;8.50;99.90;;;;;;4879314;29;20531;-72
2024/02/21 06:31:01;;;;;;;12.23;5.80;;;8.60;99.90;;;;;;4878533;29;20231;-70
2024/02/21 06:33:28;;;;;;;9.20;6.40;;;8.60;99.90;;;;;;4879357;29;20679;-70
2024/02/21 06:35:55;;;;;;;7.47;5.43;;;8.60;99.90;;;;;;4877229;29;20212;-70
2024/02/21 06:38:21;;;;;;;11.52;6.72;;;8.60;99.90;;;;;;4874689;29;20212;-70
2024/02/21 06:40:51;;;;;;;7.28;4.85;;;8.60;99.90;;;;;;4877261;29;20707;-71
2024/02/21 06:43:22;;;;;;;10.65;6.63;;;8.60;99.90;;;;;;4879296;29;20276;-71
2024/02/21 06:45:50;;;;;;;9.25;5.63;;;8.60;99.90;;;;;;4875637;29;20227;-70
2024/02/21 06:48:18;;;;;;;7.63;6.05;;;8.60;99.90;;;;;;4876385;29;20303;-70
2024/02/21 06:50:45;;;;;;;13.07;6.22;;;8.60;99.90;;;;;;4878172;29;20263;-70
2024/02/21 06:53:12;;;;;;;9.85;5.82;;;8.60;99.90;;;;;;4879177;29;20213;-70
2024/02/21 06:55:39;;;;;;;12.38;5.22;;;8.60;99.90;;;;;;4878682;29;20220;-70
2024/02/21 06:58:08;;;;;;;7.55;5.00;;;8.60;99.90;;;;;;4878957;29;20208;-70
2024/02/21 07:00:36;;;;;;;6.88;4.32;;;8.60;99.90;;;;;;4874300;29;20247;-70
2024/02/21 07:03:03;;;;;;;9.38;4.55;;;8.60;99.90;;;;;;4876650;29;20212;-70
2024/02/21 07:05:30;;;;;;;4.68;4.28;;;8.60;99.90;;;;;;4877833;29;20208;-71
2024/02/21 07:07:56;;;;;;;6.93;5.07;;;8.60;99.90;;;;;;4878177;29;20204;-70
2024/02/21 07:10:23;;;;;;;6.93;4.78;;;8.60;99.90;;;;;;4877791;29;20587;-70
2024/02/21 07:12:51;;;;;;;5.35;4.85;;;8.60;99.90;;;;;;4877734;29;20238;-70
2024/02/21 07:15:18;;;;;;;5.80;4.97;;;8.60;99.90;;;;;;4878807;29;20693;-70
2024/02/21 07:17:46;;;;;;;7.25;3.78;;;8.60;99.90;;;;;;4876479;29;20223;-70
2024/02/21 07:20:13;;;;;;;3.60;2.97;;;8.60;99.90;;;;;;4878486;29;20228;-72
2024/02/21 07:22:40;;;;;;;3.35;2.83;;;8.60;99.90;;;;;;4876762;29;20220;-71
2024/02/21 07:25:07;;;;;;;8.73;5.28;;;8.60;99.90;;;;;;4876863;29;20598;-71
2024/02/21 07:27:34;;;;;;;4.38;3.92;;;8.60;99.90;;;;;;4877233;29;20295;-72
2024/02/21 07:30:01;;;;;;;6.82;2.72;;;8.60;99.90;;;;;;4877876;29;20306;-70
2024/02/21 07:32:30;;;;;;;6.22;3.65;;;8.60;99.90;;;;;;4878946;29;20231;-69
2024/02/21 07:34:58;;;;;;;7.20;4.18;;;8.70;99.90;;;;;;4876526;29;20212;-71
2024/02/21 07:37:24;;;;;;;4.47;3.60;;;8.80;99.90;;;;;;4878105;29;20222;-70
2024/02/21 07:39:51;;;;;;;4.55;4.10;;;8.90;99.90;;;;;;4872815;29;20232;-70
2024/02/21 07:42:18;;;;;;;3.45;2.80;;;8.90;99.90;;;;;;4872456;29;20673;-71
2024/02/21 07:44:45;;;;;;;6.97;3.85;;;9.00;99.90;;;;;;4875818;29;20218;-71
2024/02/21 07:47:11;;;;;;;7.05;2.85;;;9.00;99.90;;;;;;4878776;29;20221;-71
2024/02/21 07:49:42;;;;;;;4.03;3.50;;;9.10;99.90;;;;;;4877168;29;20222;-71
2024/02/21 07:52:10;;;;;;;5.88;4.03;;;9.10;99.90;;;;;;4877366;29;20323;-71
2024/02/21 07:54:37;;;;;;;4.68;3.88;;;9.20;99.90;;;;;;4876314;29;20220;-74
2024/02/21 07:57:04;;;;;;;3.83;2.50;;;9.20;99.90;;;;;;4882059;29;20209;-70
2024/02/21 07:59:31;;;;;;;5.72;4.15;;;9.20;99.90;;;;;;4871685;29;20668;-71
2024/02/21 08:01:58;;;;;;;8.35;4.85;;;9.30;99.90;;;;;;4876118;29;20248;-71
2024/02/21 08:04:25;;;;;;;5.88;3.95;;;9.30;99.90;;;;;;4875791;29;20212;-70
2024/02/21 08:06:55;;;;;;;8.82;4.03;;;9.30;99.90;;;;;;4875607;29;20221;-70
2024/02/21 08:09:23;;;;;;;8.38;4.38;;;9.40;99.90;;;;;;4873362;29;20231;-71
2024/02/21 08:11:50;;;;;;;4.35;4.05;;;9.40;99.90;;;;;;4871336;29;20745;-70
2024/02/21 08:14:17;;;;;;;5.00;3.88;;;9.40;99.90;;;;;;4880959;29;20210;-71
2024/02/21 08:16:44;;;;;;;4.63;4.22;;;9.40;99.90;;;;;;4876228;29;20220;-71
2024/02/21 08:19:12;;;;;;;6.43;3.95;;;9.40;99.90;;;;;;4876851;29;20648;-71
2024/02/21 08:21:38;;;;;;;5.03;4.53;;;9.50;99.90;;;;;;4876512;29;20247;-70
2024/02/21 08:24:05;;;;;;;6.25;4.65;;;9.50;99.90;;;;;;4872727;29;20212;-71
2024/02/21 08:26:34;;;;;;;4.05;3.40;;;9.50;99.90;;;;;;4873757;29;20217;-71
2024/02/21 08:29:00;;;;;;;7.22;5.35;;;9.50;99.90;;;;;;4868355;29;20597;-70
2024/02/21 08:31:31;;;;;;;3.60;3.25;;;9.60;99.90;;;;;;4870335;29;20594;-70
2024/02/21 08:34:02;;;;;;;9.57;5.78;;;9.60;99.90;;;;;;4872697;29;20233;-69
2024/02/21 08:36:28;;;;;;;7.55;4.80;;;9.70;99.90;;;;;;4877302;29;20217;-70
2024/02/21 08:38:54;;;;;;;4.72;4.25;;;9.70;99.90;;;;;;4875753;29;20262;-70
2024/02/21 08:41:23;;;;;;;4.90;4.47;;;9.70;99.90;;;;;;4873341;29;20250;-70
2024/02/21 08:43:51;;;;;;;6.32;4.15;;;9.70;99.90;;;;;;4876734;29;20225;-70
2024/02/21 08:46:17;;;;;;;4.00;3.70;;;9.80;99.90;;;;;;4876777;29;20211;-70
2024/02/21 08:48:45;;;;;;;4.90;4.40;;;9.80;99.90;;;;;;4876965;29;20207;-70
2024/02/21 08:51:12;;;;;;;6.30;3.90;;;9.80;99.90;;;;;;4875815;29;20234;-71
2024/02/21 08:53:39;;;;;;;4.32;3.88;;;9.80;99.90;;;;;;4875717;29;20316;-70
2024/02/21 08:56:08;;;;;;;6.22;4.60;;;9.90;99.90;;;;;;4876336;29;20237;-70
2024/02/21 08:58:35;;;;;;;10.10;5.18;;;9.90;99.90;;;;;;4873374;29;20214;-70
2024/02/21 09:01:05;;;;;;;5.35;4.88;;;9.90;99.90;;;;;;4868174;29;20692;-71
2024/02/21 09:03:32;;;;;;;5.50;3.50;;;9.80;99.90;;;;;;4876145;29;20257;-70
2024/02/21 09:05:59;;;;;;;4.68;4.22;;;9.70;99.90;;;;;;4874942;29;20687;-69
2024/02/21 09:08:26;;;;;;;9.68;5.43;;;9.60;99.90;;;;;;4874762;29;20567;-69
2024/02/21 09:10:53;;;;;;;4.38;3.15;;;9.70;99.90;;;;;;4876092;29;20244;-69
2024/02/21 09:13:20;;;;;;;4.68;4.28;;;9.70;99.90;;;;;;4875643;29;20661;-69
2024/02/21 09:15:46;;;;;;;7.65;4.47;;;9.80;99.90;;;;;;4877031;29;20218;-72
2024/02/21 09:18:14;;;;;;;5.22;4.72;;;9.80;99.90;;;;;;4867372;29;20211;-70
2024/02/21 09:20:41;;;;;;;9.15;4.90;;;9.90;99.90;;;;;;4875821;29;20591;-69
2024/02/21 09:23:08;;;;;;;5.43;4.15;;;9.90;99.90;;;;;;4876162;29;20705;-69
2024/02/21 09:25:35;;;;;;;4.10;3.70;;;9.80;99.90;;;;;;4876750;29;20591;-70
2024/02/21 09:28:02;;;;;;;3.45;3.15;;;9.80;99.90;;;;;;4873653;29;20209;-70
2024/02/21 09:30:30;;;;;;;9.68;7.70;;;9.80;99.90;;;;;;4876099;29;21947;-70
2024/02/21 09:32:58;;;;;;;8.18;4.90;;;9.80;99.90;;;;;;4875280;29;20289;-70
2024/02/21 09:35:27;;;;;;;9.55;4.28;;;9.80;99.90;;;;;;4870039;29;20208;-71
2024/02/21 09:37:54;;;;;;;4.60;4.22;;;9.80;99.90;;;;;;4875383;29;20627;-70
2024/02/21 09:40:21;;;;;;;4.88;4.35;;;9.80;99.90;;;;;;4874383;29;20641;-70
2024/02/21 09:42:49;;;;;;;4.45;3.42;;;9.90;99.90;;;;;;4874092;29;20218;-69
2024/02/21 09:45:21;;;;;;;8.23;5.30;;;9.80;99.90;;;;;;4876769;29;20221;-71
2024/02/21 09:48:00;;;;;;;4.65;3.75;;;9.80;99.90;;;;;;4875544;29;20215;-70
2024/02/21 09:50:29;;;;;;;4.20;3.80;;;9.80;99.90;;;;;;4876604;29;20210;-70
2024/02/21 09:52:59;;;;;;;6.03;4.47;;;9.80;99.90;;;;;;4877327;29;20220;-70
2024/02/21 09:55:28;;;;;;;9.80;6.45;;;9.70;99.90;;;;;;4880586;29;20209;-70
2024/02/21 09:57:56;;;;;;;11.05;6.70;;;9.60;99.90;;;;;;4879825;29;20572;-70
2024/02/21 10:00:23;;;;;;;11.82;5.28;;;9.60;99.90;;;;;;4879478;29;20236;-70
2024/02/21 10:02:50;;;;;;;12.32;6.90;;;9.60;99.90;;;;;;4879674;29;20276;-70
2024/02/21 10:05:17;;;;;;;12.68;6.68;;;9.50;99.90;;;;;;4880516;29;20209;-71
2024/02/21 10:07:45;;;;;;;9.88;6.88;;;9.50;99.90;;;;;;4879805;29;20691;-72
2024/02/21 10:10:12;;;;;;;8.70;6.82;;;9.50;99.90;;;;;;4879800;29;20240;-71
2024/02/21 10:12:49;;;;;;;15.52;6.82;;;9.50;99.90;;;;;;4879464;29;20217;-71
2024/02/21 10:15:21;;;;;;;9.63;5.97;;;9.40;99.90;;;;;;4880418;29;20258;-71
2024/02/21 10:17:48;;;;;;;12.40;6.85;;;9.40;99.90;;;;;;4878135;29;20265;-71
2024/02/21 10:20:16;;;;;;;12.38;7.85;;;9.40;99.90;;;;;;4879114;29;20210;-71
2024/02/21 10:22:43;;;;;;;9.48;6.40;;;9.50;99.90;;;;;;4879498;29;20733;-71
2024/02/21 10:25:13;;;;;;;10.45;6.35;;;9.50;99.90;;;;;;4880052;29;20208;-71
2024/02/21 10:27:40;;;;;;;7.60;5.35;;;9.50;99.90;;;;;;4878746;29;20214;-71
2024/02/21 10:30:14;;;;;;;22.17;7.35;;;9.50;99.90;;;;;;4879579;29;20218;-71
2024/02/21 10:32:50;;;;;;;11.85;8.00;;;9.50;99.90;;;;;;4879963;29;20213;-71
2024/02/21 10:35:27;;;;;;;9.90;6.63;;;9.60;99.90;;;;;;4880085;29;20262;-71
2024/02/21 10:37:55;;;;;;;13.98;7.10;;;9.70;99.90;;;;;;4879214;29;20756;-71
2024/02/21 10:40:24;;;;;;;15.35;7.65;;;9.70;99.90;;;;;;4879273;29;20221;-71
2024/02/21 10:42:57;;;;;;;13.07;5.97;;;9.80;99.90;;;;;;4878577;29;20217;-71
2024/02/21 10:45:28;;;;;;;12.75;7.30;;;9.80;99.90;;;;;;4879110;29;20279;-71
2024/02/21 10:48:02;;;;;;;10.38;5.93;;;9.80;99.90;;;;;;4879169;29;20815;-71
2024/02/21 10:50:37;;;;;;;8.00;6.53;;;9.80;99.90;;;;;;4875636;29;20635;-71
2024/02/21 10:53:16;;;;;;;9.70;6.47;;;9.90;99.90;;;;;;4871637;29;20214;-71
2024/02/21 10:55:54;;;;;;;11.65;5.82;;;10.00;99.90;;;;;;4880921;29;20955;-71
2024/02/21 10:58:22;;;;;;;7.70;5.50;;;10.10;99.90;;;;;;4885490;29;20675;-72
2024/02/21 11:00:51;;;;;;;11.38;6.88;;;10.10;99.90;;;;;;4880251;29;20689;-71
2024/02/21 11:03:18;;;;;;;13.65;8.07;;;10.20;99.90;;;;;;4874647;29;20222;-71
2024/02/21 11:05:45;;;;;;;6.80;4.80;;;10.30;99.90;;;;;;4880876;29;20661;-71
2024/02/21 11:08:13;;;;;;;12.87;6.97;;;10.40;99.90;;;;;;4879585;29;20712;-70
2024/02/21 11:10:51;;;;;;;6.93;5.45;;;10.50;99.90;;;;;;5130664;27;20579;-69
2024/02/21 11:13:17;;;;;;;8.03;5.47;;;10.50;99.90;;;;;;5100308;28;20204;-69
2024/02/21 11:15:44;;;;;;;11.75;4.97;;;10.50;99.90;;;;;;5096539;28;20469;-70
2024/02/21 11:18:11;;;;;;;6.25;5.35;;;10.50;99.90;;;;;;5093190;28;20204;-70
2024/02/21 11:20:39;;;;;;;11.50;5.13;;;10.50;99.90;;;;;;5097188;28;20227;-69
2024/02/21 11:23:05;;;;;;;8.10;5.45;;;10.50;99.90;;;;;;5107852;28;20454;-71
2024/02/21 11:25:33;;;;;;;5.70;4.40;;;10.50;99.90;;;;;;5100460;28;20205;-70
2024/02/21 11:28:02;;;;;;;5.70;3.43;;;10.50;99.90;;;;;;5096389;28;20466;-70
2024/02/21 11:30:32;;;;;;;12.35;5.90;;;10.50;99.90;;;;;;5094904;28;20468;-71
2024/02/21 11:33:03;;;;;;;9.02;5.05;;;10.50;99.90;;;;;;5104972;28;20222;-71
2024/02/21 11:35:33;;;;;;;8.85;5.25;;;10.30;99.90;;;;;;5104378;28;20607;-71
2024/02/21 11:38:09;;;;;;;9.23;6.35;;;10.30;99.90;;;;;;5097549;28;20204;-69
2024/02/21 11:40:39;;;;;;;7.88;5.18;;;10.30;99.90;;;;;;5101583;28;20814;-71
2024/02/21 11:43:07;;;;;;;7.13;5.55;;;10.20;99.90;;;;;;5096614;28;20206;-71
2024/02/21 11:45:33;;;;;;;9.63;5.72;;;10.20;99.90;;;;;;5102350;28;20676;-69
2024/02/21 11:48:03;;;;;;;10.95;6.55;;;10.20;99.90;;;;;;5104092;28;20218;-71
2024/02/21 11:50:31;;;;;;;11.57;6.13;;;10.10;99.90;;;;;;5095932;28;20659;-72
2024/02/21 11:52:58;;;;;;;6.00;5.25;;;10.10;99.90;;;;;;5098534;28;20212;-71
2024/02/21 11:55:25;;;;;;;8.75;6.10;;;10.10;99.90;;;;;;5107851;28;20200;-71
2024/02/21 11:57:52;;;;;;;11.90;6.20;;;10.10;99.90;;;;;;5096939;28;20211;-71
2024/02/21 12:00:21;;;;;;;12.48;6.53;;;10.10;99.90;;;;;;5097778;28;20234;-71
2024/02/21 12:02:48;;;;;;;11.88;7.18;;;10.00;99.90;;;;;;5107348;28;20234;-71
2024/02/21 12:05:15;;;;;;;10.45;6.85;;;10.00;99.90;;;;;;5107134;28;20200;-70
2024/02/21 12:07:42;;;;;;;14.50;7.43;;;10.00;99.90;;;;;;5106852;28;20208;-70
2024/02/21 12:10:10;;;;;;;12.45;7.63;;;10.00;99.90;;;;;;5101234;28;20212;-70
2024/02/21 12:12:38;;;;;;;14.25;8.32;;;10.00;99.90;;;;;;5100269;28;20260;-68
2024/02/21 12:15:06;;;;;;;24.27;10.23;;;10.00;99.90;;;;;;5095973;28;20728;-69
2024/02/21 12:17:35;;;;;;;17.27;9.27;;;10.00;99.90;;;;;;5101707;28;20204;-69
2024/02/21 12:20:05;;;;;;;14.07;9.20;;;10.00;99.90;;;;;;5096805;28;20220;-67
2024/02/21 12:22:32;;;;;;;15.50;9.73;;;10.00;99.90;;;;;;5089020;28;20254;-70
2024/02/21 12:24:59;;;;;;;19.52;9.93;;;9.90;99.90;;;;;;5079745;28;20285;-70
2024/02/21 12:27:26;;;;;;;20.98;8.88;;;9.80;99.90;;;;;;5087937;28;20200;-70
2024/02/21 12:29:53;;;;;;;12.00;9.18;;;9.80;99.90;;;;;;5083379;28;20216;-70
2024/02/21 12:32:19;;;;;;;19.80;9.75;;;9.80;99.90;;;;;;5092666;28;20217;-71
2024/02/21 12:34:48;;;;;;;42.15;12.05;;;9.80;99.90;;;;;;5088375;28;20205;-68
2024/02/21 12:37:15;;;;;;;23.55;10.00;;;9.80;99.90;;;;;;5084563;28;20212;-71
2024/02/21 12:39:42;;;;;;;10.95;8.50;;;9.90;99.90;;;;;;5091855;28;20216;-69
2024/02/21 12:42:11;;;;;;;13.77;9.38;;;9.90;99.90;;;;;;5087252;28;20713;-69
2024/02/21 12:44:38;;;;;;;15.32;11.20;;;9.90;99.90;;;;;;5079583;28;20715;-69
2024/02/21 12:47:05;;;;;;;8.57;7.25;;;9.90;99.90;;;;;;5090843;28;20204;-69
2024/02/21 12:49:32;;;;;;;11.77;7.45;;;9.90;99.90;;;;;;5088524;28;20211;-70
2024/02/21 12:52:00;;;;;;;13.60;8.32;;;9.80;99.90;;;;;;5088025;28;20224;-70
2024/02/21 12:54:27;;;;;;;11.55;10.18;;;9.80;99.90;;;;;;5082366;28;20205;-70
2024/02/21 12:56:54;;;;;;;13.38;8.82;;;9.90;99.90;;;;;;5085226;28;20587;-71
2024/02/21 12:59:21;;;;;;;13.02;8.48;;;9.90;99.90;;;;;;5080494;28;20220;-71
2024/02/21 13:01:48;;;;;;;12.77;9.45;;;9.80;99.90;;;;;;5085817;28;20634;-70
2024/02/21 13:04:17;;;;;;;8.23;6.10;;;9.90;99.90;;;;;;5086335;28;20292;-70
2024/02/21 13:06:48;;;;;;;12.23;7.80;;;9.90;99.90;;;;;;5085022;28;20215;-70
2024/02/21 13:09:19;;;;;;;17.08;6.78;;;9.90;99.90;;;;;;5086505;28;20215;-70
2024/02/21 13:11:51;;;;;;;44.58;12.45;;;;;;;;;;5085702;28;20228;-70
2024/02/21 13:14:18;;;;;;;16.85;8.70;;;9.80;99.90;;;;;;5081411;28;20205;-69
2024/02/21 13:16:45;;;;;;;11.18;7.53;;;9.80;99.90;;;;;;5083698;28;20206;-69
2024/02/21 13:19:13;;;;;;;14.93;8.40;;;9.90;99.90;;;;;;5081282;28;20689;-69
2024/02/21 13:21:40;;;;;;;15.00;7.20;;;10.00;99.90;;;;;;5083773;28;20603;-69
2024/02/21 13:24:08;;;;;;;9.73;6.00;;;10.00;99.90;;;;;;5087162;28;20756;-71
2024/02/21 13:26:36;;;;;;;6.38;5.68;;;10.10;99.90;;;;;;5081756;28;20471;-70
2024/02/21 13:29:02;;;;;;;10.88;6.07;;;10.20;99.90;;;;;;5090811;28;20209;-70
2024/02/21 13:31:29;;;;;;;9.47;6.70;;;10.20;99.90;;;;;;5089810;28;20217;-70
2024/02/21 13:33:56;;;;;;;7.22;5.68;;;10.30;99.90;;;;;;5091262;28;20459;-70
2024/02/21 13:36:23;;;;;;;7.27;5.17;;;10.30;99.90;;;;;;5075472;28;20217;-69
2024/02/21 13:38:51;;;;;;;10.30;6.30;;;10.30;99.90;;;;;;5083211;28;20466;-69
2024/02/21 13:41:18;;;;;;;7.10;5.70;;;10.30;99.90;;;;;;5081017;28;20944;-70
2024/02/21 13:43:46;;;;;;;9.47;6.40;;;10.30;99.90;;;;;;5078803;28;20217;-69
2024/02/21 13:46:13;;;;;;;10.63;5.30;;;10.30;99.90;;;;;;5088104;28;20945;-71
2024/02/21 13:48:40;;;;;;;5.73;5.23;;;10.30;99.90;;;;;;5079402;28;20811;-70
2024/02/21 13:51:07;;;;;;;7.07;4.55;;;10.30;99.90;;;;;;5077280;28;20475;-70
2024/02/21 13:53:34;;;;;;;4.75;4.40;;;10.30;99.90;;;;;;5088686;28;20208;-72
2024/02/21 13:56:01;;;;;;;7.70;5.93;;;10.40;99.90;;;;;;5084044;28;20258;-71
2024/02/21 13:58:28;;;;;;;6.03;5.30;;;10.40;99.90;;;;;;5079365;28;20464;-69
2024/02/21 14:00:56;;;;;;;5.38;4.63;;;10.50;99.90;;;;;;5079466;28;20230;-71
2024/02/21 14:03:23;;;;;;;6.03;5.40;;;10.60;99.90;;;;;;5086905;28;20205;-68
2024/02/21 14:05:50;;;;;;;4.73;4.33;;;10.60;99.90;;;;;;5084217;28;20470;-70
2024/02/21 14:08:17;;;;;;;7.77;5.20;;;10.70;99.90;;;;;;5080653;28;20518;-70
2024/02/21 14:10:43;;;;;;;3.80;3.50;;;10.70;99.90;;;;;;5085731;28;20478;-70
2024/02/21 14:13:11;;;;;;;4.83;4.10;;;10.70;99.90;;;;;;5083558;28;20475;-71
2024/02/21 14:15:40;;;;;;;4.33;4.10;;;10.80;99.90;;;;;;5084150;28;20472;-70
2024/02/21 14:18:09;;;;;;;9.73;5.90;;;10.80;99.90;;;;;;5079567;28;20464;-68
2024/02/21 14:20:36;;;;;;;4.95;3.70;;;10.80;99.90;;;;;;5079984;28;20494;-70
2024/02/21 14:23:04;;;;;;;7.43;4.55;;;10.80;99.90;;;;;;5080143;28;20217;-70
2024/02/21 14:25:31;;;;;;;6.33;4.43;;;10.80;99.90;;;;;;5079732;28;20291;-71
2024/02/21 14:27:57;;;;;;;5.82;5.22;;;10.80;99.90;;;;;;5082318;28;20466;-69
2024/02/21 14:30:25;;;;;;;8.48;3.95;;;10.80;99.90;;;;;;5077910;28;20292;-70
2024/02/21 14:32:52;;;;;;;6.37;4.57;;;10.90;99.90;;;;;;5084711;28;20659;-69
2024/02/21 14:35:20;;;;;;;3.13;2.83;;;10.90;99.90;;;;;;5078972;28;20463;-70
2024/02/21 14:37:48;;;;;;;4.60;4.30;;;10.90;99.90;;;;;;5090919;28;20666;-71
2024/02/21 14:40:15;;;;;;;3.70;3.50;;;10.90;99.90;;;;;;5091008;28;20248;-70
2024/02/21 14:42:42;;;;;;;4.07;3.63;;;10.90;99.90;;;;;;5080877;28;20465;-70
2024/02/21 14:45:10;;;;;;;3.20;3.00;;;10.90;99.90;;;;;;5081473;28;20836;-70
2024/02/21 14:47:36;;;;;;;3.85;3.58;;;10.90;99.90;;;;;;5083507;28;20201;-70
2024/02/21 14:50:04;;;;;;;12.40;5.55;;;10.90;99.90;;;;;;5090384;28;20662;-71
2024/02/21 14:52:33;;;;;;;4.38;4.05;;;10.80;99.90;;;;;;5078633;28;20277;-70
2024/02/21 14:55:02;;;;;;;3.65;3.45;;;10.80;99.90;;;;;;5081363;28;20204;-71
2024/02/21 14:57:29;;;;;;;4.43;4.13;;;10.80;99.90;;;;;;5090785;28;20714;-69
2024/02/21 14:59:58;;;;;;;7.80;7.13;;;10.80;99.90;;;;;;5085279;28;20790;-70
2024/02/21 15:02:26;;;;;;;3.40;3.20;;;10.80;99.90;;;;;;5090644;28;20240;-69
2024/02/21 15:04:55;;;;;;;3.85;3.63;;;10.80;99.90;;;;;;5086607;28;20216;-69
2024/02/21 15:07:24;;;;;;;3.53;3.33;;;10.70;99.90;;;;;;5084688;28;20266;-69
2024/02/21 15:09:53;;;;;;;7.25;3.45;;;10.70;99.90;;;;;;5083277;28;20283;-70
2024/02/21 15:12:22;;;;;;;3.88;3.67;;;10.70;99.90;;;;;;5081776;28;20310;-70
2024/02/21 15:14:56;;;;;;;6.85;3.88;;;10.70;99.90;;;;;;5085599;28;20208;-70
2024/02/21 15:17:23;;;;;;;3.70;3.40;;;10.70;99.90;;;;;;5081528;28;21727;-70
2024/02/21 15:19:50;;;;;;;3.05;2.97;;;10.60;99.90;;;;;;5089375;28;20607;-70
2024/02/21 15:22:17;;;;;;;2.88;2.75;;;10.60;99.90;;;;;;5082552;28;20227;-69
2024/02/21 15:24:46;;;;;;;2.65;2.40;;;10.60;99.90;;;;;;5090319;28;20289;-69
2024/02/21 15:27:14;;;;;;;2.40;2.30;;;10.60;99.90;;;;;;5087508;28;20729;-70
2024/02/21 15:29:44;;;;;;;4.10;2.75;;;10.60;99.90;;;;;;5086198;28;20278;-69
2024/02/21 15:32:11;;;;;;;3.00;2.75;;;10.60;99.90;;;;;;5084975;28;20224;-69
2024/02/21 15:34:42;;;;;;;3.15;2.63;;;10.60;99.90;;;;;;5078819;28;20701;-69
2024/02/21 15:37:35;;;;;;;6.45;4.38;;;10.50;99.90;;;;;;5081274;28;20213;-69
2024/02/21 15:40:02;;;;;;;5.15;4.75;;;10.50;99.90;;;;;;5082269;28;20214;-70
2024/02/21 15:42:32;;;;;;;3.03;2.85;;;10.50;99.90;;;;;;5075202;28;20249;-70
2024/02/21 15:45:04;;;;;;;3.00;2.50;;;10.50;99.90;;;;;;5085983;28;20248;-70
2024/02/21 15:47:37;;;;;;;2.97;2.72;;;10.40;99.90;;;;;;5087341;28;20234;-71
2024/02/21 15:50:19;;;;;;;3.28;2.90;;;10.20;99.90;;;;;;5088671;28;20197;-71
2024/02/21 15:52:46;;;;;;;3.75;2.47;;;10.10;99.90;;;;;;5082991;28;20630;-69
2024/02/21 15:55:13;;;;;;;2.42;2.22;;;10.00;99.90;;;;;;5086497;28;20632;-69
2024/02/21 15:57:44;;;;;;;2.50;2.30;;;9.90;99.90;;;;;;5088143;28;20215;-70
2024/02/21 16:00:15;;;;;;;2.28;2.17;;;9.80;99.90;;;;;;5091992;28;20203;-70
2024/02/21 16:02:45;;;;;;;2.53;2.30;;;9.80;99.90;;;;;;5093770;28;20599;-70
2024/02/21 16:05:12;;;;;;;2.20;2.10;;;9.70;99.90;;;;;;5084198;28;20325;-70
2024/02/21 16:07:51;;;;;;;2.03;2.03;;;9.70;99.90;;;;;;5085306;28;20265;-70
2024/02/21 16:10:18;;;;;;;3.28;2.55;;;9.70;99.90;;;;;;5085109;28;20216;-70
2024/02/21 16:12:54;;;;;;;3.50;2.25;;;9.60;99.90;;;;;;5079421;28;20694;-70
2024/02/21 16:15:22;;;;;;;3.53;2.30;;;9.60;99.90;;;;;;5089488;28;20199;-70
2024/02/21 16:17:59;;;;;;;3.20;1.95;;;9.50;99.90;;;;;;5084723;28;20209;-70
2024/02/21 16:20:28;;;;;;;7.70;5.00;;;9.50;99.90;;;;;;5084964;28;20526;-70
2024/02/21 16:23:05;;;;;;;;;;;;;;;;;;;;;
2024/02/21 16:25:36;;;;;;;2.85;2.65;;;9.60;99.90;;;;;;5080838;28;20231;-70
2024/02/21 16:30:52;;;;;;;3.90;2.50;;;9.60;99.90;;;;;;5050450;28;20306;-71
2024/02/21 16:33:26;;;;;;;2.80;2.60;;;9.60;99.90;;;;;;5049925;28;20236;-70
2024/02/21 16:35:58;;;;;;;1.92;1.83;;;9.70;99.90;;;;;;5086676;28;20199;-70
2024/02/21 16:38:34;;;;;;;3.55;3.35;;;9.70;99.90;;;;;;5075293;28;20226;-70
2024/02/21 16:41:13;;;;;;;3.38;2.92;;;9.60;99.90;;;;;;5083410;28;20237;-69
2024/02/21 16:43:42;;;;;;;4.40;4.05;;;9.50;99.90;;;;;;5085562;28;20219;-70
2024/02/21 16:46:16;;;;;;;8.85;6.57;;;9.40;99.90;;;;;;5085108;28;20212;-71
2024/02/21 16:48:48;;;;;;;13.50;7.50;;;9.40;99.90;;;;;;5082812;28;20211;-71
2024/02/21 16:51:22;;;;;;;9.70;6.15;;;9.30;99.90;;;;;;5086868;28;20233;-71
2024/02/21 16:53:55;;;;;;;6.30;5.70;;;9.30;99.90;;;;;;5086170;28;20219;-71
2024/02/21 16:56:27;;;;;;;9.32;6.75;;;9.30;99.90;;;;;;5080149;28;20281;-70
2024/02/21 16:59:02;;;;;;;6.90;4.95;;;9.20;99.90;;;;;;5087040;28;20814;-69
2024/02/21 17:01:40;;;;;;;8.68;6.72;;;9.20;99.90;;;;;;5089154;28;20241;-70
2024/02/21 17:04:20;;;;;;;3.38;3.17;;;9.10;99.90;;;;;;5087654;28;20205;-70
2024/02/21 17:06:50;;;;;;;9.98;6.40;;;9.10;99.90;;;;;;5088573;28;20272;-71
2024/02/21 17:09:25;;;;;;;5.90;4.82;;;9.10;99.90;;;;;;5088873;28;20290;-70
2024/02/21 17:11:54;;;;;;;5.15;3.72;;;9.10;99.90;;;;;;5086037;28;20333;-70
2024/02/21 17:14:25;;;;;;;3.60;3.40;;;9.00;99.90;;;;;;5085904;28;20202;-71
2024/02/21 17:17:00;;;;;;;3.53;3.25;;;9.00;99.90;;;;;;5083766;28;20655;-70
2024/02/21 17:19:47;;;;;;;3.67;3.45;;;9.00;99.90;;;;;;5086851;28;21526;-70
2024/02/21 17:22:22;;;;;;;7.22;5.15;;;9.00;99.90;;;;;;5080299;28;20660;-70
2024/02/21 17:25:09;;;;;;;6.10;4.65;;;9.00;99.90;;;;;;5081181;28;20295;-70
2024/02/21 17:27:45;;;;;;;6.90;3.63;;;9.00;99.90;;;;;;5075749;28;20212;-70
2024/02/21 17:30:21;;;;;;;3.80;3.47;;;9.00;99.90;;;;;;5087523;28;20215;-70
2024/02/21 17:33:01;;;;;;;2.65;2.50;;;9.00;99.90;;;;;;5082599;28;20241;-71
2024/02/21 17:35:35;;;;;;;5.47;3.60;;;9.10;99.90;;;;;;5081864;28;20208;-70
2024/02/21 17:38:11;;;;;;;6.80;3.72;;;9.10;99.90;;;;;;5075317;28;20450;-70
2024/02/21 17:40:38;;;;;;;5.45;4.03;;;9.20;99.90;;;;;;5082542;28;20260;-70
2024/02/21 17:46:10;;;;;;;8.02;4.43;;;9.20;99.90;;;;;;5083703;28;20220;-71
2024/02/21 17:48:46;;;;;;;4.55;3.95;;;9.30;99.90;;;;;;5084724;28;20201;-71
2024/02/21 17:51:25;;;;;;;15.02;7.95;;;9.30;99.90;;;;;;5080673;28;20221;-71
2024/02/21 17:54:04;;;;;;;5.40;4.32;;;9.30;99.90;;;;;;5085521;28;20201;-70
2024/02/21 17:56:37;;;;;;;7.22;5.20;;;9.30;99.90;;;;;;5086590;28;20201;-70
2024/02/21 17:59:09;;;;;;;6.50;5.00;;;9.30;99.90;;;;;;5082873;28;20527;-70
2024/02/21 18:01:51;;;;;;;7.38;5.97;;;9.30;99.90;;;;;;5083300;28;20222;-71
2024/02/21 18:04:18;;;;;;;9.50;6.18;;;9.30;99.90;;;;;;5059622;22;20711;-70
2024/02/21 18:06:44;;;;;;;8.02;5.20;;;9.30;99.90;;;;;;5030157;28;20219;-70